createdAt,value
2022-09-28T00:01:16.429Z,48.72
2022-09-28T00:03:43.407Z,48.78
2022-09-28T00:06:12.532Z,48.69
2022-09-28T00:08:39.297Z,48.98
2022-09-28T00:11:07.286Z,49.05
2022-09-28T00:13:34.340Z,49.00
2022-09-28T00:16:08.998Z,48.87
2022-09-28T00:18:36.175Z,48.90
2022-09-28T00:21:08.686Z,48.79
2022-09-28T00:23:56.067Z,48.83
2022-09-28T00:26:23.099Z,48.89
2022-09-28T00:28:53.778Z,48.71
2022-09-28T00:31:20.809Z,48.89
2022-09-28T00:33:56.939Z,48.90
2022-09-28T00:36:24.529Z,48.99
2022-09-28T00:38:52.304Z,48.84
2022-09-28T00:41:18.888Z,48.88
2022-09-28T00:43:45.545Z,48.80
2022-09-28T00:46:16.213Z,49.19
2022-09-28T00:48:59.198Z,48.81
2022-09-28T00:51:26.755Z,49.03
2022-09-28T00:53:54.202Z,48.89
2022-09-28T00:56:23.541Z,48.84
2022-09-28T00:58:52.247Z,49.04
2022-09-28T01:01:19.020Z,48.92
2022-09-28T01:03:47.984Z,48.96
2022-09-28T01:06:20.536Z,48.92
2022-09-28T01:08:50.857Z,48.99
2022-09-28T01:11:20.996Z,48.89
2022-09-28T01:13:48.903Z,48.77
2022-09-28T01:16:30.990Z,49.09
2022-09-28T01:19:12.719Z,49.24
2022-09-28T01:21:53.061Z,49.08
2022-09-28T01:24:48.280Z,48.81
2022-09-28T01:27:44.853Z,48.95
2022-09-28T01:30:20.226Z,49.20
2022-09-28T01:33:02.142Z,49.12
2022-09-28T01:35:43.384Z,49.03
2022-09-28T01:38:17.513Z,49.07
2022-09-28T01:40:45.218Z,49.13
2022-09-28T01:43:17.051Z,49.20
2022-09-28T01:45:45.677Z,49.20
2022-09-28T01:48:15.597Z,49.18
2022-09-28T01:50:43.896Z,49.29
2022-09-28T01:53:33.150Z,48.99
2022-09-28T01:56:04.736Z,49.02
2022-09-28T01:58:56.153Z,49.07
2022-09-28T02:01:29.325Z,49.24
2022-09-28T02:04:01.368Z,49.20
2022-09-28T02:06:41.327Z,48.98
2022-09-28T02:09:16.012Z,49.26
2022-09-28T02:11:45.796Z,49.14
2022-09-28T02:14:13.616Z,48.98
2022-09-28T02:16:45.298Z,49.02
2022-09-28T02:19:15.983Z,49.23
2022-09-28T02:22:03.710Z,49.01
2022-09-28T02:24:46.243Z,49.26
2022-09-28T02:27:15.867Z,49.16
2022-09-28T02:29:42.477Z,48.97
2022-09-28T02:32:09.022Z,48.87
2022-09-28T02:34:35.709Z,49.22
2022-09-28T02:37:03.024Z,49.30
2022-09-28T02:39:29.635Z,49.07
2022-09-28T02:42:23.558Z,49.14
2022-09-28T02:44:57.708Z,49.08
2022-09-28T02:47:31.301Z,49.16
2022-09-28T02:50:20.857Z,49.00
2022-09-28T02:53:11.856Z,49.04
2022-09-28T02:56:07.415Z,49.11
2022-09-28T02:58:48.977Z,48.98
2022-09-28T03:01:38.320Z,49.07
2022-09-28T03:04:34.279Z,49.16
2022-09-28T03:07:06.127Z,49.17
2022-09-28T03:09:37.527Z,49.21
2022-09-28T03:12:08.813Z,49.24
2022-09-28T03:14:35.474Z,49.04
2022-09-28T03:17:02.068Z,49.18
2022-09-28T03:19:32.442Z,48.95
2022-09-28T03:21:59.674Z,48.88
2022-09-28T03:24:26.441Z,49.14
2022-09-28T03:26:53.055Z,49.28
2022-09-28T03:29:20.595Z,49.09
2022-09-28T03:31:48.594Z,49.22
2022-09-28T03:34:15.451Z,49.18
2022-09-28T03:36:42.995Z,49.08
2022-09-28T03:39:09.523Z,49.35
2022-09-28T03:41:36.089Z,49.29
2022-09-28T03:44:02.989Z,49.24
2022-09-28T03:46:29.557Z,49.14
2022-09-28T03:48:58.274Z,49.24
2022-09-28T03:51:24.853Z,49.34
2022-09-28T03:53:51.380Z,49.24
2022-09-28T03:56:18.175Z,49.28
2022-09-28T03:58:44.725Z,49.21
2022-09-28T04:01:16.993Z,49.15
2022-09-28T04:03:44.886Z,49.20
2022-09-28T04:06:11.888Z,49.06
2022-09-28T04:08:38.460Z,49.35
2022-09-28T04:11:05.130Z,49.39
2022-09-28T04:13:31.877Z,49.17
2022-09-28T04:16:00.461Z,49.26
2022-09-28T04:18:27.313Z,49.15
2022-09-28T04:21:06.549Z,49.36
2022-09-28T04:23:34.718Z,49.11
2022-09-28T04:26:01.886Z,49.32
2022-09-28T04:28:47.302Z,49.36
2022-09-28T04:31:17.068Z,49.21
2022-09-28T04:33:43.652Z,49.43
2022-09-28T04:36:11.086Z,49.35
2022-09-28T04:38:52.282Z,49.46
2022-09-28T04:41:19.908Z,49.42
2022-09-28T04:43:49.974Z,49.43
2022-09-28T04:46:16.971Z,49.34
2022-09-28T04:48:43.582Z,49.28
2022-09-28T04:51:10.113Z,49.49
2022-09-28T04:53:36.730Z,49.48
2022-09-28T04:56:06.395Z,49.65
2022-09-28T04:58:34.888Z,49.35
2022-09-28T05:01:05.742Z,49.56
2022-09-28T05:03:32.993Z,49.45
2022-09-28T05:05:59.901Z,49.36
2022-09-28T05:08:26.945Z,49.64
2022-09-28T05:11:00.890Z,49.31
2022-09-28T05:13:28.629Z,49.42
2022-09-28T05:16:00.638Z,49.39
2022-09-28T05:18:29.748Z,49.30
2022-09-28T05:20:56.301Z,49.56
2022-09-28T05:23:22.870Z,49.38
2022-09-28T05:25:49.537Z,49.60
2022-09-28T05:28:28.072Z,49.26
2022-09-28T05:31:01.823Z,49.37
2022-09-28T05:33:29.145Z,49.53
2022-09-28T05:36:00.772Z,49.33
2022-09-28T05:38:28.455Z,49.75
2022-09-28T05:40:55.167Z,49.93
2022-09-28T05:43:22.047Z,50.19
2022-09-28T05:45:52.919Z,49.99
2022-09-28T05:48:21.854Z,49.73
2022-09-28T05:50:52.444Z,49.77
2022-09-28T05:53:19.372Z,49.70
2022-09-28T05:55:46.266Z,49.66
2022-09-28T05:58:12.975Z,49.55
2022-09-28T06:00:39.658Z,49.40
2022-09-28T06:03:09.387Z,49.53
2022-09-28T06:05:36.642Z,49.65
2022-09-28T06:08:05.262Z,49.54
2022-09-28T06:10:32.686Z,49.22
2022-09-28T06:12:59.471Z,49.24
2022-09-28T06:15:28.368Z,49.49
2022-09-28T06:18:05.244Z,49.24
2022-09-28T06:20:34.819Z,49.22
2022-09-28T06:23:01.362Z,49.21
2022-09-28T06:25:27.912Z,49.29
2022-09-28T06:28:01.841Z,49.35
2022-09-28T06:30:29.785Z,49.25
2022-09-28T06:32:57.810Z,49.39
2022-09-28T06:35:26.222Z,49.08
2022-09-28T06:37:53.428Z,50.02
2022-09-28T06:40:20.974Z,49.69
2022-09-28T06:43:07.004Z,49.70
2022-09-28T06:45:33.615Z,49.86
2022-09-28T06:48:01.328Z,49.95
2022-09-28T06:50:32.286Z,49.95
2022-09-28T06:52:59.799Z,50.00
2022-09-28T06:55:26.902Z,49.85
2022-09-28T06:58:04.443Z,49.76
2022-09-28T07:00:35.447Z,49.56
2022-09-28T07:03:03.451Z,49.39
2022-09-28T07:05:30.424Z,49.75
2022-09-28T07:07:57.596Z,49.85
2022-09-28T07:10:28.574Z,50.27
2022-09-28T07:12:56.897Z,50.18
2022-09-28T07:15:24.249Z,49.88
2022-09-28T07:18:02.002Z,49.97
2022-09-28T07:20:30.299Z,50.50
2022-09-28T07:23:13.340Z,52.75
2022-09-28T07:25:48.060Z,53.30
2022-09-28T07:28:15.226Z,55.33
2022-09-28T07:30:44.771Z,54.78
2022-09-28T07:33:14.525Z,53.00
2022-09-28T07:35:42.407Z,52.65
2022-09-28T07:38:10.380Z,52.65
2022-09-28T07:40:55.795Z,52.64
2022-09-28T07:43:22.706Z,52.22
2022-09-28T07:45:51.124Z,52.46
2022-09-28T07:48:18.717Z,52.48
2022-09-28T07:50:51.839Z,51.73
2022-09-28T07:53:22.552Z,51.83
2022-09-28T07:56:02.105Z,51.86
2022-09-28T07:58:29.367Z,51.37
2022-09-28T08:00:56.005Z,51.53
2022-09-28T08:03:22.606Z,51.28
2022-09-28T08:05:49.824Z,51.20
2022-09-28T08:08:16.462Z,50.98
2022-09-28T08:10:46.813Z,50.77
2022-09-28T08:13:15.335Z,50.85
2022-09-28T08:15:42.647Z,50.47
2022-09-28T08:18:09.967Z,50.19
2022-09-28T08:20:55.006Z,50.42
2022-09-28T08:23:21.904Z,50.12
2022-09-28T08:25:49.276Z,49.97
2022-09-28T08:28:17.748Z,50.08
2022-09-28T08:30:45.435Z,49.82
2022-09-28T08:33:13.112Z,49.75
2022-09-28T08:35:41.295Z,49.35
2022-09-28T08:38:08.560Z,49.24
2022-09-28T08:40:41.812Z,49.47
2022-09-28T08:43:22.888Z,49.23
2022-09-28T08:45:50.652Z,49.13
2022-09-28T08:48:40.366Z,49.07
2022-09-28T08:51:15.597Z,48.92
2022-09-28T08:54:04.849Z,49.04
2022-09-28T08:56:47.850Z,48.94
2022-09-28T08:59:21.231Z,49.02
2022-09-28T09:01:51.540Z,48.95
2022-09-28T09:04:18.752Z,48.61
2022-09-28T09:07:03.519Z,48.54
2022-09-28T09:09:40.064Z,48.60
2022-09-28T09:12:21.662Z,48.56
2022-09-28T09:14:53.481Z,48.36
2022-09-28T09:17:28.099Z,48.08
2022-09-28T09:19:57.533Z,48.35
2022-09-28T09:23:01.043Z,48.48
2022-09-28T09:25:50.533Z,47.85
2022-09-28T09:28:36.239Z,48.09
2022-09-28T09:31:12.510Z,48.20
2022-09-28T09:34:11.058Z,48.25
2022-09-28T09:36:49.679Z,48.95
2022-09-28T09:39:50.696Z,49.03
2022-09-28T09:42:21.913Z,48.73
2022-09-28T09:45:00.105Z,49.85
2022-09-28T09:47:30.180Z,49.54
2022-09-28T09:50:11.315Z,49.23
2022-09-28T09:52:54.916Z,49.08
2022-09-28T09:55:30.086Z,49.04
2022-09-28T09:58:23.912Z,49.38
2022-09-28T10:00:52.157Z,49.38
2022-09-28T10:03:26.237Z,49.37
2022-09-28T10:06:09.527Z,48.99
2022-09-28T10:08:51.384Z,49.34
2022-09-28T10:11:26.319Z,49.51
2022-09-28T10:13:52.901Z,49.31
2022-09-28T10:16:19.755Z,49.32
2022-09-28T10:18:46.489Z,48.93
2022-09-28T10:21:14.748Z,48.91
2022-09-28T10:23:42.046Z,48.82
2022-09-28T10:26:25.558Z,48.65
2022-09-28T10:29:01.727Z,48.29
2022-09-28T10:31:39.690Z,48.20
2022-09-28T10:34:07.888Z,48.45
2022-09-28T10:36:52.743Z,48.09
2022-09-28T10:39:44.652Z,47.72
2022-09-28T10:42:20.411Z,47.87
2022-09-28T10:44:50.777Z,47.75
2022-09-28T10:47:19.712Z,47.87
2022-09-28T10:49:48.849Z,47.88
2022-09-28T10:52:30.613Z,47.69
2022-09-28T10:54:57.146Z,47.78
2022-09-28T10:57:35.694Z,47.80
2022-09-28T11:00:06.842Z,48.76
2022-09-28T11:02:36.689Z,49.04
2022-09-28T11:05:05.699Z,49.27
2022-09-28T11:07:33.700Z,49.28
2022-09-28T11:10:01.425Z,48.66
2022-09-28T11:12:35.746Z,48.90
2022-09-28T11:15:06.866Z,49.03
2022-09-28T11:17:40.578Z,49.35
2022-09-28T11:20:27.890Z,49.25
2022-09-28T11:22:56.038Z,48.75
2022-09-28T11:25:30.241Z,48.72
2022-09-28T11:28:01.800Z,48.57
2022-09-28T11:30:31.338Z,48.61
2022-09-28T11:33:02.939Z,48.32
2022-09-28T11:35:46.402Z,48.38
2022-09-28T11:38:41.538Z,48.31
2022-09-28T11:41:29.804Z,48.42
2022-09-28T11:44:05.141Z,48.11
2022-09-28T11:46:32.911Z,48.16
2022-09-28T11:49:08.126Z,47.59
2022-09-28T11:51:36.449Z,48.09
2022-09-28T11:54:14.278Z,47.92
2022-09-28T11:56:44.346Z,48.17
2022-09-28T11:59:37.253Z,47.77
2022-09-28T12:02:14.132Z,47.65
2022-09-28T12:04:44.497Z,47.88
2022-09-28T12:07:23.267Z,47.54
2022-09-28T12:10:13.521Z,47.65
2022-09-28T12:13:01.353Z,47.47
2022-09-28T12:15:47.214Z,47.39
2022-09-28T12:18:24.506Z,47.23
2022-09-28T12:21:09.674Z,47.06
2022-09-28T12:23:38.322Z,46.74
2022-09-28T12:26:10.928Z,46.83
2022-09-28T12:28:50.819Z,46.43
2022-09-28T12:31:34.768Z,46.22
2022-09-28T12:34:01.993Z,46.66
2022-09-28T12:36:41.532Z,46.30
2022-09-28T12:39:21.841Z,46.37
2022-09-28T12:42:07.617Z,46.39
2022-09-28T12:44:57.164Z,46.44
2022-09-28T12:48:01.125Z,46.27
2022-09-28T12:50:39.608Z,47.05
2022-09-28T12:53:38.950Z,46.41
2022-09-28T12:56:12.168Z,46.25
2022-09-28T12:59:20.880Z,46.42
2022-09-28T13:02:02.394Z,46.11
2022-09-28T13:05:02.414Z,45.78
2022-09-28T13:07:31.636Z,46.08
2022-09-28T13:10:07.025Z,46.16
2022-09-28T13:12:36.417Z,45.97
2022-09-28T13:15:13.282Z,45.72
2022-09-28T13:18:18.080Z,45.77
2022-09-28T13:21:03.005Z,45.82
2022-09-28T13:23:35.586Z,45.91
2022-09-28T13:26:14.479Z,46.06
2022-09-28T13:28:43.117Z,46.05
2022-09-28T13:31:11.031Z,46.15
2022-09-28T13:33:40.394Z,45.79
2022-09-28T13:36:25.369Z,45.90
2022-09-28T13:38:52.551Z,45.52
2022-09-28T13:41:40.561Z,45.66
2022-09-28T13:44:17.226Z,45.78
2022-09-28T13:47:05.569Z,45.97
2022-09-28T13:49:37.813Z,46.20
2022-09-28T13:52:13.674Z,46.02
2022-09-28T13:55:09.113Z,46.03
2022-09-28T13:57:55.979Z,46.06
2022-09-28T14:00:46.476Z,46.03
2022-09-28T14:03:44.913Z,45.76
2022-09-28T14:06:30.393Z,45.72
2022-09-28T14:09:22.992Z,45.99
2022-09-28T14:12:00.365Z,45.93
2022-09-28T14:14:48.668Z,46.00
2022-09-28T14:17:49.130Z,45.89
2022-09-28T14:20:16.857Z,45.92
2022-09-28T14:23:11.633Z,45.90
2022-09-28T14:25:44.805Z,45.62
2022-09-28T14:28:45.649Z,45.95
2022-09-28T14:31:22.891Z,45.91
2022-09-28T14:33:58.454Z,45.49
2022-09-28T14:36:46.603Z,45.95
2022-09-28T14:39:56.648Z,45.50
2022-09-28T14:42:25.099Z,45.84
2022-09-28T14:45:05.250Z,45.85
2022-09-28T14:47:44.390Z,45.37
2022-09-28T14:50:27.161Z,45.58
2022-09-28T14:52:55.239Z,45.42
2022-09-28T14:55:52.458Z,45.31
2022-09-28T14:58:22.504Z,45.39
2022-09-28T15:01:05.746Z,45.57
2022-09-28T15:03:33.562Z,45.39
2022-09-28T15:06:01.567Z,45.72
2022-09-28T15:08:38.726Z,45.58
2022-09-28T15:11:06.223Z,45.42
2022-09-28T15:13:32.856Z,45.64
2022-09-28T15:16:23.053Z,45.35
2022-09-28T15:19:17.469Z,45.24
2022-09-28T15:21:47.465Z,45.43
2022-09-28T15:24:31.919Z,45.65
2022-09-28T15:27:00.253Z,45.73
2022-09-28T15:29:33.386Z,45.59
2022-09-28T15:32:00.225Z,45.19
2022-09-28T15:34:52.067Z,45.33
2022-09-28T15:37:29.711Z,45.40
2022-09-28T15:39:58.334Z,45.51
2022-09-28T15:42:24.990Z,45.45
2022-09-28T15:45:22.135Z,45.13
2022-09-28T15:47:48.709Z,44.98
2022-09-28T15:50:30.116Z,45.15
2022-09-28T15:53:04.662Z,45.13
2022-09-28T15:55:34.027Z,44.69
2022-09-28T15:58:12.555Z,45.08
2022-09-28T16:00:40.217Z,44.97
2022-09-28T16:03:06.774Z,44.75
2022-09-28T16:06:11.926Z,44.89
2022-09-28T16:08:50.466Z,45.00
2022-09-28T16:11:29.407Z,45.00
2022-09-28T16:14:08.938Z,44.63
2022-09-28T16:16:46.787Z,44.79
2022-09-28T16:19:29.224Z,44.86
2022-09-28T16:21:57.837Z,44.54
2022-09-28T16:24:30.496Z,44.75
2022-09-28T16:27:06.061Z,44.88
2022-09-28T16:29:39.838Z,44.55
2022-09-28T16:32:25.056Z,44.61
2022-09-28T16:35:12.657Z,44.83
2022-09-28T16:37:43.294Z,44.48
2022-09-28T16:40:10.847Z,44.63
2022-09-28T16:42:38.972Z,44.56
2022-09-28T16:45:07.269Z,44.87
2022-09-28T16:47:34.651Z,45.04
2022-09-28T16:50:02.517Z,44.58
2022-09-28T16:52:47.795Z,44.59
2022-09-28T16:58:04.865Z,44.93
2022-09-28T17:00:32.472Z,44.65
2022-09-28T17:02:59.418Z,45.02
2022-09-28T17:05:26.104Z,44.96
2022-09-28T17:08:01.358Z,45.13
2022-09-28T17:11:09.387Z,45.01
2022-09-28T17:13:35.992Z,44.54
2022-09-28T17:16:06.252Z,45.06
2022-09-28T17:18:33.037Z,45.13
2022-09-28T17:21:04.075Z,44.90
2022-09-28T17:23:30.896Z,44.70
2022-09-28T17:25:59.176Z,44.85
2022-09-28T17:28:27.790Z,44.94
2022-09-28T17:30:55.774Z,45.16
2022-09-28T17:33:22.361Z,44.74
2022-09-28T17:36:00.526Z,44.96
2022-09-28T17:38:27.254Z,45.30
2022-09-28T17:40:53.841Z,45.03
2022-09-28T17:43:22.198Z,45.41
2022-09-28T17:45:49.046Z,45.28
2022-09-28T17:48:17.706Z,45.19
2022-09-28T17:50:46.641Z,45.08
2022-09-28T17:53:13.918Z,45.18
2022-09-28T17:55:40.774Z,45.43
2022-09-28T17:58:18.661Z,44.94
2022-09-28T18:00:50.418Z,45.52
2022-09-28T18:03:24.577Z,45.44
2022-09-28T18:06:06.523Z,45.33
2022-09-28T18:08:33.980Z,45.48
2022-09-28T18:11:01.814Z,45.28
2022-09-28T18:13:28.547Z,45.32
2022-09-28T18:15:55.995Z,45.12
2022-09-28T18:18:23.552Z,45.22
2022-09-28T18:20:50.171Z,44.98
2022-09-28T18:23:16.884Z,44.95
2022-09-28T18:25:44.829Z,45.04
2022-09-28T18:28:12.094Z,45.27
2022-09-28T18:30:43.929Z,45.09
2022-09-28T18:33:12.053Z,45.07
2022-09-28T18:35:38.682Z,45.37
2022-09-28T18:38:06.197Z,45.10
2022-09-28T18:40:34.425Z,45.29
2022-09-28T18:43:01.109Z,44.95
2022-09-28T18:45:27.773Z,44.88
2022-09-28T18:47:54.314Z,45.16
2022-09-28T18:50:20.941Z,45.11
2022-09-28T18:52:47.627Z,45.23
2022-09-28T18:55:14.297Z,44.96
2022-09-28T18:57:42.293Z,45.31
2022-09-28T19:00:11.123Z,45.26
2022-09-28T19:02:38.185Z,44.88
2022-09-28T19:05:05.774Z,45.60
2022-09-28T19:07:33.330Z,45.37
2022-09-28T19:09:59.954Z,45.81
2022-09-28T19:12:26.500Z,45.40
2022-09-28T19:14:53.189Z,45.66
2022-09-28T19:17:20.766Z,45.43
2022-09-28T19:19:47.311Z,45.33
2022-09-28T19:22:13.844Z,45.32
2022-09-28T19:24:40.613Z,45.54
2022-09-28T19:27:07.181Z,45.70
2022-09-28T19:29:33.782Z,45.59
2022-09-28T19:32:00.385Z,45.42
2022-09-28T19:34:30.074Z,45.63
2022-09-28T19:36:57.227Z,45.50
2022-09-28T19:39:23.834Z,45.76
2022-09-28T19:41:51.428Z,45.42
2022-09-28T19:44:26.084Z,45.79
2022-09-28T19:46:55.234Z,45.37
2022-09-28T19:49:23.472Z,45.46
2022-09-28T19:54:39.682Z,45.31
2022-09-28T19:57:08.444Z,45.39
2022-09-28T19:59:36.901Z,45.33
2022-09-28T20:02:04.625Z,45.15
2022-09-28T20:04:31.237Z,45.31
2022-09-28T20:06:57.792Z,45.36
2022-09-28T20:09:24.358Z,45.30
2022-09-28T20:11:51.938Z,45.28
2022-09-28T20:14:18.734Z,44.94
2022-09-28T20:16:48.325Z,45.22
2022-09-28T20:19:15.020Z,45.07
2022-09-28T20:21:41.677Z,45.23
2022-09-28T20:24:10.466Z,44.73
2022-09-28T20:26:37.909Z,44.89
2022-09-28T20:29:05.573Z,45.05
2022-09-28T20:31:32.210Z,44.84
2022-09-28T20:33:58.877Z,44.99
2022-09-28T20:36:26.467Z,45.03
2022-09-28T20:38:54.157Z,45.16
2022-09-28T20:41:22.755Z,45.06
2022-09-28T20:43:57.608Z,45.29
2022-09-28T20:46:25.655Z,45.19
2022-09-28T20:48:54.965Z,45.06
2022-09-28T20:51:22.037Z,45.59
2022-09-28T20:53:53.592Z,45.64
2022-09-28T20:56:23.946Z,45.72
2022-09-28T20:58:51.169Z,45.88
2022-09-28T21:01:27.415Z,45.72
2022-09-28T21:03:57.347Z,45.53
2022-09-28T21:06:26.837Z,45.74
2022-09-28T21:08:53.686Z,45.75
2022-09-28T21:11:22.895Z,45.58
2022-09-28T21:13:58.119Z,45.50
2022-09-28T21:16:25.566Z,45.71
2022-09-28T21:18:52.153Z,45.66
2022-09-28T21:21:20.287Z,45.66
2022-09-28T21:23:47.402Z,45.75
2022-09-28T21:26:16.310Z,45.50
2022-09-28T21:28:44.765Z,45.37
2022-09-28T21:31:11.821Z,45.43
2022-09-28T21:33:38.543Z,45.53
2022-09-28T21:36:06.895Z,45.51
2022-09-28T21:38:34.389Z,45.40
2022-09-28T21:41:01.015Z,45.23
2022-09-28T21:43:28.440Z,45.32
2022-09-28T21:45:56.127Z,45.35
2022-09-28T21:48:24.158Z,45.29
2022-09-28T21:50:57.095Z,45.16
2022-09-28T21:55:56.280Z,45.31
2022-09-28T21:58:25.859Z,45.23
2022-09-28T22:01:01.404Z,45.13
2022-09-28T22:03:29.130Z,45.51
2022-09-28T22:05:55.678Z,45.34
2022-09-28T22:08:25.033Z,45.08
2022-09-28T22:11:10.281Z,45.03
2022-09-28T22:13:40.375Z,45.28
2022-09-28T22:16:08.250Z,45.45
2022-09-28T22:18:34.923Z,45.10
2022-09-28T22:21:11.894Z,45.30
2022-09-28T22:23:39.641Z,45.01
2022-09-28T22:26:11.046Z,45.54
2022-09-28T22:28:38.806Z,45.14
2022-09-28T22:31:05.802Z,44.90
2022-09-28T22:33:32.436Z,44.83
2022-09-28T22:35:59.020Z,44.80
2022-09-28T22:38:25.632Z,45.07
2022-09-28T22:40:56.532Z,45.16
2022-09-28T22:43:24.427Z,45.09
2022-09-28T22:46:00.999Z,44.97
2022-09-28T22:48:27.587Z,45.10
2022-09-28T22:50:54.115Z,44.82
2022-09-28T22:53:20.645Z,45.17
2022-09-28T22:55:47.237Z,44.93
2022-09-28T22:58:14.113Z,45.03
2022-09-28T23:00:40.822Z,44.88
2022-09-28T23:03:07.391Z,44.89
2022-09-28T23:05:34.010Z,44.93
2022-09-28T23:08:00.788Z,44.93
2022-09-28T23:10:27.388Z,45.15
2022-09-28T23:12:54.875Z,44.77
2022-09-28T23:15:22.373Z,45.01
2022-09-28T23:17:55.025Z,44.73
2022-09-28T23:20:21.733Z,44.90
2022-09-28T23:22:48.953Z,44.70
2022-09-28T23:25:17.097Z,44.95
2022-09-28T23:27:47.825Z,45.09
2022-09-28T23:30:15.901Z,44.96
2022-09-28T23:32:42.701Z,45.00
2022-09-28T23:35:09.539Z,44.93
2022-09-28T23:37:36.709Z,44.83
2022-09-28T23:40:04.780Z,44.83
2022-09-28T23:42:31.318Z,45.04
2022-09-28T23:44:57.868Z,44.74
2022-09-28T23:47:24.436Z,44.73
2022-09-28T23:49:50.965Z,44.52
2022-09-28T23:52:17.783Z,44.69
2022-09-28T23:54:44.694Z,44.92
2022-09-28T23:57:11.329Z,44.91
2022-09-28T23:59:37.917Z,44.78
